createdAt,value
2023-03-17T00:01:36.484Z,0.50
2023-03-17T00:04:03.235Z,0.50
2023-03-17T00:06:31.582Z,0.50
2023-03-17T00:08:58.309Z,0.40
2023-03-17T00:11:27.007Z,0.50
2023-03-17T00:13:54.181Z,0.50
2023-03-17T00:16:24.850Z,0.50
2023-03-17T00:18:53.459Z,0.40
2023-03-17T00:21:28.163Z,0.45
2023-03-17T00:23:55.417Z,0.50
2023-03-17T00:26:22.548Z,0.50
2023-03-17T00:28:49.165Z,0.50
2023-03-17T00:31:20.724Z,0.40
2023-03-17T00:33:48.923Z,0.47
2023-03-17T00:36:19.864Z,0.50
2023-03-17T00:38:46.428Z,0.40
2023-03-17T00:41:13.438Z,0.40
2023-03-17T00:43:41.258Z,0.40
2023-03-17T00:46:23.690Z,0.40
2023-03-17T00:51:17.923Z,0.40
2023-03-17T00:53:44.669Z,0.40
2023-03-17T00:56:16.975Z,0.40
2023-03-17T00:58:44.660Z,0.40
2023-03-17T01:01:12.523Z,0.50
2023-03-17T01:03:39.381Z,0.43
2023-03-17T01:06:10.972Z,0.40
2023-03-17T01:08:39.048Z,0.40
2023-03-17T01:11:06.027Z,0.40
2023-03-17T01:13:32.637Z,0.40
2023-03-17T01:15:59.286Z,0.40
2023-03-17T01:18:25.938Z,0.40
2023-03-17T01:20:53.275Z,0.50
2023-03-17T01:23:19.954Z,0.40
2023-03-17T01:25:46.576Z,0.40
2023-03-17T01:28:15.995Z,0.40
2023-03-17T01:30:43.764Z,0.40
2023-03-17T01:33:13.029Z,0.43
2023-03-17T01:35:41.450Z,0.40
2023-03-17T01:38:08.754Z,0.40
2023-03-17T01:40:43.910Z,0.50
2023-03-17T01:43:10.474Z,0.40
2023-03-17T01:46:17.747Z,0.40
2023-03-17T01:49:06.680Z,0.40
2023-03-17T01:51:43.036Z,0.50
2023-03-17T01:54:16.514Z,0.50
2023-03-17T01:56:48.986Z,0.40
2023-03-17T01:59:21.605Z,0.40
2023-03-17T02:01:50.337Z,0.40
2023-03-17T02:04:18.653Z,0.50
2023-03-17T02:06:57.594Z,0.40
2023-03-17T02:09:25.582Z,0.50
2023-03-17T02:11:52.238Z,0.40
2023-03-17T02:14:18.999Z,0.50
2023-03-17T02:16:45.709Z,0.50
2023-03-17T02:19:12.733Z,0.40
2023-03-17T02:21:49.123Z,0.50
2023-03-17T02:24:25.153Z,0.50
2023-03-17T02:26:54.610Z,0.43
2023-03-17T02:29:23.132Z,0.43
2023-03-17T02:31:50.545Z,0.40
2023-03-17T02:34:17.302Z,0.50
2023-03-17T02:36:44.375Z,0.50
2023-03-17T02:39:11.159Z,0.40
2023-03-17T02:41:38.030Z,0.40
2023-03-17T02:44:05.119Z,0.47
2023-03-17T02:46:32.013Z,0.40
2023-03-17T02:48:58.813Z,0.40
2023-03-17T02:51:25.554Z,0.50
2023-03-17T02:53:52.181Z,0.45
2023-03-17T02:56:18.814Z,0.40
2023-03-17T02:58:45.480Z,0.40
2023-03-17T03:01:13.158Z,0.40
2023-03-17T03:03:39.884Z,0.40
2023-03-17T03:06:06.858Z,0.50
2023-03-17T03:08:33.529Z,0.50
2023-03-17T03:11:02.476Z,0.40
2023-03-17T03:13:29.148Z,0.40
2023-03-17T03:15:56.255Z,0.40
2023-03-17T03:18:23.201Z,0.40
2023-03-17T03:20:50.124Z,0.50
2023-03-17T03:23:17.029Z,0.43
2023-03-17T03:25:43.723Z,0.40
2023-03-17T03:28:10.680Z,0.40
2023-03-17T03:30:37.825Z,0.40
2023-03-17T03:33:04.799Z,0.40
2023-03-17T03:35:31.598Z,0.40
2023-03-17T03:37:58.751Z,0.50
2023-03-17T03:40:26.219Z,0.40
2023-03-17T03:42:52.880Z,0.40
2023-03-17T03:45:19.481Z,0.40
2023-03-17T03:47:46.143Z,0.40
2023-03-17T03:50:13.332Z,0.40
2023-03-17T03:52:40.326Z,0.40
2023-03-17T03:55:07.341Z,0.40
2023-03-17T03:57:33.891Z,0.40
2023-03-17T04:00:00.694Z,0.40
2023-03-17T04:02:27.714Z,0.40
2023-03-17T04:04:54.521Z,0.40
2023-03-17T04:07:21.469Z,0.40
2023-03-17T04:09:49.318Z,0.40
2023-03-17T04:12:16.894Z,0.40
2023-03-17T04:14:44.595Z,0.40
2023-03-17T04:17:11.851Z,0.40
2023-03-17T04:19:39.077Z,0.40
2023-03-17T04:22:07.513Z,0.50
2023-03-17T04:24:34.982Z,0.50
2023-03-17T04:27:03.711Z,0.40
2023-03-17T04:29:32.213Z,0.40
2023-03-17T04:31:58.830Z,0.40
2023-03-17T04:34:26.694Z,0.40
2023-03-17T04:36:53.243Z,0.40
2023-03-17T04:39:19.930Z,0.40
2023-03-17T04:41:46.585Z,0.40
2023-03-17T04:44:13.507Z,0.40
2023-03-17T04:46:40.171Z,0.40
2023-03-17T04:49:07.051Z,0.40
2023-03-17T04:51:34.047Z,0.40
2023-03-17T04:54:01.517Z,0.40
2023-03-17T04:56:30.500Z,0.40
2023-03-17T04:58:58.221Z,0.40
2023-03-17T05:01:25.010Z,0.40
2023-03-17T05:03:51.711Z,0.40
2023-03-17T05:06:18.338Z,0.40
2023-03-17T05:08:45.130Z,0.40
2023-03-17T05:11:12.402Z,0.40
2023-03-17T05:13:40.985Z,0.43
2023-03-17T05:16:08.955Z,0.45
2023-03-17T05:18:36.526Z,0.40
2023-03-17T05:21:03.615Z,0.40
2023-03-17T05:23:30.347Z,0.50
2023-03-17T05:25:57.053Z,0.40
2023-03-17T05:28:25.013Z,0.40
2023-03-17T05:30:52.141Z,0.50
2023-03-17T05:33:20.179Z,0.40
2023-03-17T05:35:47.371Z,0.40
2023-03-17T05:38:16.066Z,0.50
2023-03-17T05:40:43.491Z,0.40
2023-03-17T05:43:11.144Z,0.40
2023-03-17T05:45:37.781Z,0.50
2023-03-17T05:48:05.435Z,0.50
2023-03-17T05:50:32.620Z,0.40
2023-03-17T05:52:59.496Z,0.50
2023-03-17T05:55:26.299Z,0.50
2023-03-17T05:57:52.976Z,0.50
2023-03-17T06:00:21.541Z,0.40
2023-03-17T06:02:48.408Z,0.50
2023-03-17T06:05:15.067Z,0.50
2023-03-17T06:07:52.897Z,0.50
2023-03-17T06:10:22.670Z,0.40
2023-03-17T06:12:49.343Z,0.50
2023-03-17T06:15:17.151Z,0.50
2023-03-17T06:17:43.867Z,0.50
2023-03-17T06:20:11.792Z,0.50
2023-03-17T06:22:42.348Z,0.50
2023-03-17T06:25:15.699Z,0.50
2023-03-17T06:27:42.693Z,0.50
2023-03-17T06:30:10.392Z,0.50
2023-03-17T06:32:37.193Z,0.40
2023-03-17T06:35:05.343Z,0.60
2023-03-17T06:37:32.000Z,0.50
2023-03-17T06:39:59.274Z,0.60
2023-03-17T06:42:25.797Z,0.50
2023-03-17T06:44:52.721Z,0.50
2023-03-17T06:47:20.136Z,0.60
2023-03-17T06:49:46.692Z,0.50
2023-03-17T06:52:14.178Z,0.60
2023-03-17T06:54:41.363Z,0.52
2023-03-17T06:57:09.581Z,0.50
2023-03-17T06:59:36.483Z,0.50
2023-03-17T07:02:03.679Z,0.40
2023-03-17T07:04:31.274Z,0.50
2023-03-17T07:06:58.162Z,0.50
2023-03-17T07:09:24.744Z,0.50
2023-03-17T07:11:51.619Z,0.50
2023-03-17T07:14:18.784Z,0.50
2023-03-17T07:16:45.435Z,0.50
2023-03-17T07:19:12.247Z,0.50
2023-03-17T07:21:38.994Z,0.60
2023-03-17T07:24:05.716Z,0.60
2023-03-17T07:26:32.256Z,0.50
2023-03-17T07:29:01.381Z,0.50
2023-03-17T07:31:28.334Z,0.50
2023-03-17T07:33:57.457Z,0.50
2023-03-17T07:36:24.259Z,0.50
2023-03-17T07:38:50.883Z,0.60
2023-03-17T07:41:18.260Z,0.60
2023-03-17T07:43:44.944Z,0.60
2023-03-17T07:46:12.829Z,0.60
2023-03-17T07:48:42.323Z,0.57
2023-03-17T07:51:21.603Z,0.60
2023-03-17T07:53:50.159Z,0.60
2023-03-17T07:56:17.831Z,0.50
2023-03-17T07:58:44.903Z,0.60
2023-03-17T08:01:11.588Z,0.50
2023-03-17T08:03:41.316Z,0.60
2023-03-17T08:06:08.755Z,0.60
2023-03-17T08:08:36.014Z,0.60
2023-03-17T08:11:04.791Z,0.50
2023-03-17T08:13:32.254Z,0.60
2023-03-17T08:15:58.817Z,0.57
2023-03-17T08:18:25.783Z,0.60
2023-03-17T08:20:52.581Z,0.60
2023-03-17T08:23:19.860Z,0.60
2023-03-17T08:25:47.625Z,0.50
2023-03-17T08:28:15.439Z,0.50
2023-03-17T08:30:43.247Z,0.63
2023-03-17T08:33:09.933Z,0.60
2023-03-17T08:35:37.411Z,0.60
2023-03-17T08:38:04.652Z,0.55
2023-03-17T08:40:31.712Z,0.55
2023-03-17T08:42:58.515Z,0.50
2023-03-17T08:45:25.229Z,0.60
2023-03-17T08:47:52.585Z,0.60
2023-03-17T08:50:22.275Z,0.50
2023-03-17T08:52:49.816Z,0.60
2023-03-17T08:55:16.896Z,0.57
2023-03-17T08:57:44.728Z,0.50
2023-03-17T09:00:16.339Z,0.50
2023-03-17T09:02:43.953Z,0.60
2023-03-17T09:05:15.568Z,0.70
2023-03-17T09:07:42.168Z,0.60
2023-03-17T09:10:10.991Z,0.60
2023-03-17T09:12:38.247Z,0.60
2023-03-17T09:15:06.004Z,0.60
2023-03-17T09:17:32.906Z,0.60
2023-03-17T09:19:59.724Z,0.60
2023-03-17T09:22:27.109Z,0.55
2023-03-17T09:24:53.876Z,0.70
2023-03-17T09:27:20.476Z,0.65
2023-03-17T09:29:47.208Z,0.50
2023-03-17T09:32:14.068Z,0.70
2023-03-17T09:34:40.661Z,0.70
2023-03-17T09:37:07.259Z,0.60
2023-03-17T09:39:34.224Z,0.60
2023-03-17T09:42:35.364Z,0.60
2023-03-17T09:45:23.420Z,0.68
2023-03-17T09:48:15.804Z,0.70
2023-03-17T09:51:06.718Z,0.80
2023-03-17T09:53:47.292Z,0.80
2023-03-17T09:56:16.327Z,0.70
2023-03-17T09:58:51.426Z,0.60
2023-03-17T10:01:18.643Z,0.60
2023-03-17T10:03:47.239Z,0.70
2023-03-17T10:06:28.929Z,0.70
2023-03-17T10:09:02.628Z,0.60
2023-03-17T10:11:38.830Z,0.70
2023-03-17T10:14:19.537Z,0.70
2023-03-17T10:17:03.750Z,0.70
2023-03-17T10:19:40.716Z,0.60
2023-03-17T10:22:23.723Z,0.70
2023-03-17T10:25:03.606Z,0.70
2023-03-17T10:27:36.383Z,0.70
2023-03-17T10:30:03.588Z,0.60
2023-03-17T10:32:32.362Z,0.70
2023-03-17T10:34:58.999Z,0.60
2023-03-17T10:37:26.878Z,0.65
2023-03-17T10:39:57.589Z,0.60
2023-03-17T10:42:35.380Z,0.70
2023-03-17T10:45:14.238Z,0.60
2023-03-17T10:47:46.072Z,0.57
2023-03-17T10:50:18.413Z,0.60
2023-03-17T10:52:49.443Z,0.60
2023-03-17T10:55:21.469Z,0.70
2023-03-17T10:58:01.248Z,0.70
2023-03-17T11:00:35.309Z,0.70
2023-03-17T11:03:18.518Z,0.70
2023-03-17T11:05:57.589Z,0.70
2023-03-17T11:08:24.292Z,0.60
2023-03-17T11:10:56.693Z,0.70
2023-03-17T11:13:30.326Z,0.70
2023-03-17T11:16:24.987Z,0.70
2023-03-17T11:18:56.592Z,0.70
2023-03-17T11:21:32.509Z,0.68
2023-03-17T11:24:02.046Z,0.60
2023-03-17T11:26:50.173Z,0.60
2023-03-17T11:29:32.645Z,0.70
2023-03-17T11:32:01.950Z,0.65
2023-03-17T11:35:08.397Z,0.70
2023-03-17T11:37:56.751Z,0.70
2023-03-17T11:40:40.078Z,0.60
2023-03-17T11:43:32.187Z,0.70
2023-03-17T11:46:27.598Z,0.70
2023-03-17T11:49:18.957Z,0.60
2023-03-17T11:52:12.270Z,0.60
2023-03-17T11:55:00.639Z,0.60
2023-03-17T11:57:32.303Z,0.60
2023-03-17T12:00:10.670Z,0.60
2023-03-17T12:02:43.644Z,0.60
2023-03-17T12:05:15.438Z,0.60
2023-03-17T12:07:53.315Z,0.68
2023-03-17T12:10:29.437Z,0.60
2023-03-17T12:13:02.633Z,0.60
2023-03-17T12:15:36.430Z,0.60
2023-03-17T12:18:12.305Z,0.60
2023-03-17T12:20:57.172Z,0.50
2023-03-17T12:23:48.269Z,0.60
2023-03-17T12:26:50.749Z,0.60
2023-03-17T12:29:22.028Z,0.60
2023-03-17T12:31:55.969Z,0.60
2023-03-17T12:34:42.030Z,0.65
2023-03-17T12:37:09.862Z,0.60
2023-03-17T12:39:37.614Z,0.60
2023-03-17T12:42:52.482Z,0.60
2023-03-17T12:45:27.991Z,0.60
2023-03-17T12:48:12.745Z,0.57
2023-03-17T12:51:06.826Z,0.50
2023-03-17T12:53:35.809Z,0.50
2023-03-17T12:56:08.261Z,0.60
2023-03-17T12:58:44.103Z,0.60
2023-03-17T13:01:19.678Z,0.60
2023-03-17T13:03:58.054Z,0.60
2023-03-17T13:06:25.213Z,0.68
2023-03-17T13:08:53.261Z,0.70
2023-03-17T13:11:38.854Z,0.60
2023-03-17T13:14:16.337Z,0.60
2023-03-17T13:16:47.391Z,0.70
2023-03-17T13:19:25.543Z,0.63
2023-03-17T13:22:01.139Z,0.60
2023-03-17T13:24:49.077Z,0.60
2023-03-17T13:27:31.111Z,0.60
2023-03-17T13:30:18.802Z,0.60
2023-03-17T13:32:56.485Z,0.50
2023-03-17T13:35:42.471Z,0.52
2023-03-17T13:38:36.880Z,0.60
2023-03-17T13:41:15.520Z,0.60
2023-03-17T13:44:08.990Z,0.57
2023-03-17T13:46:41.801Z,0.60
2023-03-17T13:49:23.492Z,0.60
2023-03-17T13:52:00.251Z,0.50
2023-03-17T13:54:28.137Z,0.57
2023-03-17T13:57:15.906Z,0.57
2023-03-17T14:00:02.650Z,0.60
2023-03-17T14:02:36.546Z,0.57
2023-03-17T14:05:06.931Z,0.60
2023-03-17T14:07:59.714Z,0.60
2023-03-17T14:10:30.378Z,0.60
2023-03-17T14:13:28.431Z,0.60
2023-03-17T14:16:16.656Z,0.60
2023-03-17T14:18:49.815Z,0.60
2023-03-17T14:21:25.632Z,0.60
2023-03-17T14:23:56.422Z,0.60
2023-03-17T14:26:32.856Z,0.50
2023-03-17T14:29:01.187Z,0.60
2023-03-17T14:31:29.399Z,0.60
2023-03-17T14:33:58.972Z,0.50
2023-03-17T14:36:28.109Z,0.60
2023-03-17T14:38:56.866Z,0.60
2023-03-17T14:41:26.517Z,0.60
2023-03-17T14:43:58.179Z,0.50
2023-03-17T14:46:41.143Z,0.60
2023-03-17T14:49:18.484Z,0.50
2023-03-17T14:51:48.186Z,0.60
2023-03-17T14:54:20.636Z,0.60
2023-03-17T14:56:52.523Z,0.60
2023-03-17T14:59:22.758Z,0.55
2023-03-17T15:01:54.860Z,0.57
2023-03-17T15:04:27.683Z,0.60
2023-03-17T15:06:57.356Z,0.57
2023-03-17T15:09:37.124Z,0.60
2023-03-17T15:12:21.878Z,0.60
2023-03-17T15:14:53.019Z,0.60
2023-03-17T15:17:22.728Z,0.50
2023-03-17T15:19:52.540Z,0.60
2023-03-17T15:22:44.128Z,0.60
2023-03-17T15:25:34.806Z,0.60
2023-03-17T15:28:01.458Z,0.50
2023-03-17T15:30:37.440Z,0.60
2023-03-17T15:33:28.344Z,0.60
2023-03-17T15:36:01.981Z,0.50
2023-03-17T15:38:29.292Z,0.50
2023-03-17T15:40:56.470Z,0.50
2023-03-17T15:43:23.631Z,0.50
2023-03-17T15:46:05.188Z,0.60
2023-03-17T15:48:36.334Z,0.50
2023-03-17T15:51:05.253Z,0.50
2023-03-17T15:53:32.298Z,0.50
2023-03-17T15:55:59.245Z,0.50
2023-03-17T15:58:26.168Z,0.50
2023-03-17T16:00:57.090Z,0.50
2023-03-17T16:03:31.282Z,0.52
2023-03-17T16:05:59.669Z,0.50
2023-03-17T16:08:26.411Z,0.60
2023-03-17T16:10:53.120Z,0.52
2023-03-17T16:13:19.940Z,0.60
2023-03-17T16:15:58.676Z,0.50
2023-03-17T16:18:33.950Z,0.60
2023-03-17T16:21:01.385Z,0.50
2023-03-17T16:23:31.524Z,0.70
2023-03-17T16:26:11.722Z,0.50
2023-03-17T16:28:42.035Z,0.57
2023-03-17T16:31:19.568Z,0.50
2023-03-17T16:33:47.894Z,0.50
2023-03-17T16:36:17.021Z,0.60
2023-03-17T16:38:43.895Z,0.50
2023-03-17T16:41:19.190Z,0.50
2023-03-17T16:43:51.012Z,0.50
2023-03-17T16:46:18.316Z,0.60
2023-03-17T16:48:45.084Z,0.50
2023-03-17T16:51:12.218Z,0.50
2023-03-17T16:53:38.822Z,0.50
2023-03-17T16:56:13.141Z,0.50
2023-03-17T16:58:40.237Z,0.50
2023-03-17T17:01:12.959Z,0.50
2023-03-17T17:03:39.682Z,0.60
2023-03-17T17:06:07.220Z,0.50
2023-03-17T17:08:33.892Z,0.50
2023-03-17T17:11:00.589Z,0.50
2023-03-17T17:13:27.249Z,0.60
2023-03-17T17:15:55.069Z,0.60
2023-03-17T17:18:24.606Z,0.50
2023-03-17T17:20:53.122Z,0.50
2023-03-17T17:23:22.820Z,0.50
2023-03-17T17:25:50.268Z,0.50
2023-03-17T17:28:21.372Z,0.50
2023-03-17T17:30:49.633Z,0.50
2023-03-17T17:33:16.933Z,0.60
2023-03-17T17:35:44.603Z,0.43
2023-03-17T17:38:23.656Z,0.50
2023-03-17T17:40:50.420Z,0.45
2023-03-17T17:43:18.218Z,0.60
2023-03-17T17:45:48.573Z,0.50
2023-03-17T17:48:17.595Z,0.50
2023-03-17T17:50:44.536Z,0.50
2023-03-17T17:53:14.822Z,0.40
2023-03-17T17:55:43.106Z,0.50
2023-03-17T17:58:13.672Z,0.50
2023-03-17T18:00:40.526Z,0.50
2023-03-17T18:03:07.343Z,0.60
2023-03-17T18:05:33.925Z,0.50
2023-03-17T18:08:02.397Z,0.50
2023-03-17T18:10:30.585Z,0.50
2023-03-17T18:12:57.490Z,0.50
2023-03-17T18:15:26.502Z,0.50
2023-03-17T18:17:53.700Z,0.60
2023-03-17T18:20:22.260Z,0.50
2023-03-17T18:22:49.757Z,0.50
2023-03-17T18:25:16.931Z,0.50
2023-03-17T18:27:43.888Z,0.50
2023-03-17T18:30:14.429Z,0.50
2023-03-17T18:32:43.363Z,0.50
2023-03-17T18:35:14.550Z,0.40
2023-03-17T18:37:41.257Z,0.50
2023-03-17T18:40:15.086Z,0.50
2023-03-17T18:42:43.155Z,0.40
2023-03-17T18:45:11.638Z,0.40
2023-03-17T18:47:39.094Z,0.50
2023-03-17T18:50:07.144Z,0.50
2023-03-17T18:52:35.737Z,0.50
2023-03-17T18:55:02.956Z,0.50
2023-03-17T18:57:29.603Z,0.50
2023-03-17T18:59:56.284Z,0.50
2023-03-17T19:02:23.018Z,0.50
2023-03-17T19:04:50.043Z,0.50
2023-03-17T19:07:17.933Z,0.50
2023-03-17T19:09:45.010Z,0.40
2023-03-17T19:12:11.668Z,0.50
2023-03-17T19:14:41.041Z,0.50
2023-03-17T19:17:08.889Z,0.50
2023-03-17T19:19:35.797Z,0.50
2023-03-17T19:22:03.980Z,0.50
2023-03-17T19:24:31.666Z,0.50
2023-03-17T19:26:58.251Z,0.50
2023-03-17T19:29:24.895Z,0.50
2023-03-17T19:31:51.514Z,0.50
2023-03-17T19:34:18.208Z,0.50
2023-03-17T19:36:48.304Z,0.50
2023-03-17T19:39:15.106Z,0.50
2023-03-17T19:41:41.706Z,0.50
2023-03-17T19:44:08.720Z,0.50
2023-03-17T19:46:37.049Z,0.50
2023-03-17T19:49:04.902Z,0.50
2023-03-17T19:51:32.876Z,0.50
2023-03-17T19:53:59.596Z,0.50
2023-03-17T19:56:27.886Z,0.50
2023-03-17T19:58:55.494Z,0.50
2023-03-17T20:01:22.865Z,0.50
2023-03-17T20:03:50.897Z,0.50
2023-03-17T20:06:17.677Z,0.50
2023-03-17T20:08:44.616Z,0.50
2023-03-17T20:11:12.601Z,0.50
2023-03-17T20:13:39.682Z,0.50
2023-03-17T20:16:07.695Z,0.50
2023-03-17T20:18:34.703Z,0.50
2023-03-17T20:21:05.341Z,0.50
2023-03-17T20:23:32.746Z,0.50
2023-03-17T20:25:59.798Z,0.40
2023-03-17T20:28:27.711Z,0.50
2023-03-17T20:30:59.727Z,0.45
2023-03-17T20:33:26.653Z,0.40
2023-03-17T20:35:53.657Z,0.40
2023-03-17T20:38:21.297Z,0.40
2023-03-17T20:40:47.973Z,0.40
2023-03-17T20:43:14.822Z,0.40
2023-03-17T20:45:41.531Z,0.40
2023-03-17T20:48:10.785Z,0.40
2023-03-17T20:50:39.025Z,0.43
2023-03-17T20:53:05.666Z,0.40
2023-03-17T20:55:32.305Z,0.43
2023-03-17T20:57:59.757Z,0.40
2023-03-17T21:00:26.791Z,0.40
2023-03-17T21:02:53.560Z,0.40
2023-03-17T21:05:27.019Z,0.40
2023-03-17T21:07:53.570Z,0.40
2023-03-17T21:10:20.689Z,0.40
2023-03-17T21:12:48.050Z,0.40
2023-03-17T21:15:15.595Z,0.40
2023-03-17T21:17:42.519Z,0.40
2023-03-17T21:20:12.225Z,0.40
2023-03-17T21:22:40.213Z,0.40
2023-03-17T21:25:08.969Z,0.40
2023-03-17T21:27:39.554Z,0.40
2023-03-17T21:30:11.945Z,0.30
2023-03-17T21:32:39.223Z,0.40
2023-03-17T21:35:06.625Z,0.40
2023-03-17T21:37:33.582Z,0.40
2023-03-17T21:40:00.259Z,0.40
2023-03-17T21:42:27.831Z,0.40
2023-03-17T21:44:54.424Z,0.40
2023-03-17T21:47:21.183Z,0.35
2023-03-17T21:49:47.790Z,0.32
2023-03-17T21:52:15.124Z,0.40
2023-03-17T21:54:41.939Z,0.30
2023-03-17T21:57:08.652Z,0.30
2023-03-17T21:59:35.850Z,0.40
2023-03-17T22:02:02.852Z,0.32
2023-03-17T22:04:30.144Z,0.30
2023-03-17T22:06:58.868Z,0.40
2023-03-17T22:09:26.300Z,0.40
2023-03-17T22:11:53.052Z,0.40
2023-03-17T22:14:20.052Z,0.40
2023-03-17T22:16:50.441Z,0.30
2023-03-17T22:19:19.912Z,0.30
2023-03-17T22:21:48.099Z,0.40
2023-03-17T22:24:14.792Z,0.38
2023-03-17T22:26:42.209Z,0.30
2023-03-17T22:29:09.015Z,0.40
2023-03-17T22:31:36.339Z,0.30
2023-03-17T22:34:03.105Z,0.30
2023-03-17T22:36:30.654Z,0.30
2023-03-17T22:38:58.447Z,0.30
2023-03-17T22:41:27.544Z,0.30
2023-03-17T22:43:54.776Z,0.30
2023-03-17T22:46:22.187Z,0.30
2023-03-17T22:48:49.513Z,0.40
2023-03-17T22:51:19.327Z,0.30
2023-03-17T22:53:45.954Z,0.30
2023-03-17T22:56:14.485Z,0.30
2023-03-17T22:58:41.376Z,0.40
2023-03-17T23:01:08.567Z,0.30
2023-03-17T23:03:35.640Z,0.30
2023-03-17T23:06:03.872Z,0.30
2023-03-17T23:08:32.145Z,0.40
2023-03-17T23:11:00.850Z,0.30
2023-03-17T23:13:27.761Z,0.30
2023-03-17T23:15:54.389Z,0.30
2023-03-17T23:18:20.980Z,0.30
2023-03-17T23:20:47.689Z,0.30
2023-03-17T23:23:14.819Z,0.40
2023-03-17T23:25:41.385Z,0.30
2023-03-17T23:28:09.151Z,0.30
2023-03-17T23:30:36.438Z,0.30
2023-03-17T23:33:04.921Z,0.30
2023-03-17T23:35:32.448Z,0.30
2023-03-17T23:37:59.983Z,0.30
2023-03-17T23:40:26.548Z,0.30
2023-03-17T23:42:55.127Z,0.30
2023-03-17T23:45:23.290Z,0.30
2023-03-17T23:47:52.124Z,0.30
2023-03-17T23:50:19.963Z,0.30
2023-03-17T23:52:47.245Z,0.30
2023-03-17T23:55:16.100Z,0.30
2023-03-17T23:57:44.135Z,0.30
